createdAt,value
2024-03-15T00:00:02.383Z,2.75
2024-03-15T00:03:08.592Z,2.87
2024-03-15T00:06:12.254Z,2.97
2024-03-15T00:09:14.409Z,3.04
2024-03-15T00:12:16.672Z,2.82
2024-03-15T00:15:20.151Z,2.69
2024-03-15T00:18:22.669Z,2.79
2024-03-15T00:21:25.601Z,2.72
2024-03-15T00:24:28.011Z,2.82
2024-03-15T00:27:30.303Z,2.68
2024-03-15T00:30:32.751Z,2.58
2024-03-15T00:33:35.016Z,2.56
2024-03-15T00:36:37.402Z,2.48
2024-03-15T00:39:39.563Z,2.66
2024-03-15T00:42:42.913Z,2.47
2024-03-15T00:45:45.942Z,2.38
2024-03-15T00:48:48.158Z,2.43
2024-03-15T00:51:50.760Z,2.41
2024-03-15T00:54:52.914Z,2.40
2024-03-15T00:57:55.025Z,2.32
2024-03-15T01:00:57.314Z,2.37
2024-03-15T01:03:59.468Z,2.40
2024-03-15T01:07:01.910Z,2.35
2024-03-15T01:10:04.195Z,2.25
2024-03-15T01:13:07.224Z,2.10
2024-03-15T01:16:10.613Z,2.29
2024-03-15T01:19:12.816Z,2.62
2024-03-15T01:22:14.993Z,2.44
2024-03-15T01:25:17.079Z,2.47
2024-03-15T01:28:19.429Z,2.64
2024-03-15T01:31:21.585Z,2.40
2024-03-15T01:34:23.731Z,2.24
2024-03-15T01:37:25.876Z,2.24
2024-03-15T01:40:28.677Z,2.32
2024-03-15T01:43:30.845Z,2.39
2024-03-15T01:46:33.024Z,2.28
2024-03-15T01:49:35.125Z,2.33
2024-03-15T01:52:38.002Z,2.26
2024-03-15T01:55:40.126Z,2.27
2024-03-15T01:58:42.274Z,2.23
2024-03-15T02:01:44.561Z,2.29
2024-03-15T02:04:56.137Z,2.25
2024-03-15T02:07:58.267Z,2.43
2024-03-15T02:11:01.616Z,2.33
2024-03-15T02:14:04.494Z,2.36
2024-03-15T02:17:08.302Z,2.33
2024-03-15T02:20:13.708Z,2.30
2024-03-15T02:23:16.762Z,2.59
2024-03-15T02:26:19.077Z,2.54
2024-03-15T02:29:21.193Z,2.43
2024-03-15T02:32:26.302Z,2.30
2024-03-15T02:35:32.665Z,2.48
2024-03-15T02:38:35.493Z,2.28
2024-03-15T02:41:37.658Z,2.28
2024-03-15T02:44:39.795Z,2.21
2024-03-15T02:47:42.038Z,2.11
2024-03-15T02:50:44.184Z,2.38
2024-03-15T02:53:46.347Z,2.33
2024-03-15T02:56:48.528Z,2.19
2024-03-15T02:59:50.550Z,2.09
2024-03-15T03:02:54.837Z,2.78
2024-03-15T03:05:59.134Z,2.39
2024-03-15T03:09:01.203Z,2.91
2024-03-15T03:12:03.387Z,2.50
2024-03-15T03:15:05.817Z,2.62
2024-03-15T03:18:08.115Z,2.50
2024-03-15T03:21:10.505Z,2.64
2024-03-15T03:24:13.551Z,2.38
2024-03-15T03:27:15.734Z,2.29
2024-03-15T03:30:18.986Z,2.35
2024-03-15T03:33:21.489Z,2.55
2024-03-15T03:36:23.720Z,2.29
2024-03-15T03:39:27.542Z,2.81
2024-03-15T03:42:29.807Z,2.36
2024-03-15T03:45:32.141Z,2.28
2024-03-15T03:48:34.529Z,2.33
2024-03-15T03:51:36.809Z,2.43
2024-03-15T03:54:39.025Z,2.40
2024-03-15T03:57:46.132Z,2.32
2024-03-15T04:00:49.752Z,2.47
2024-03-15T04:03:52.021Z,2.44
2024-03-15T04:06:54.205Z,2.33
2024-03-15T04:09:56.644Z,2.72
2024-03-15T04:12:58.939Z,2.43
2024-03-15T04:16:01.449Z,2.31
2024-03-15T04:19:04.444Z,2.42
2024-03-15T04:22:06.578Z,2.44
2024-03-15T04:25:08.695Z,2.40
2024-03-15T04:28:11.497Z,2.44
2024-03-15T04:31:13.698Z,2.39
2024-03-15T04:34:16.131Z,2.36
2024-03-15T04:37:20.648Z,2.36
2024-03-15T04:40:22.921Z,2.26
2024-03-15T04:43:25.057Z,2.24
2024-03-15T04:46:27.173Z,2.19
2024-03-15T04:49:30.008Z,2.24
2024-03-15T04:52:32.043Z,2.28
2024-03-15T04:55:34.890Z,2.36
2024-03-15T04:58:38.447Z,2.50
2024-03-15T05:01:40.763Z,2.50
2024-03-15T05:04:42.815Z,2.46
2024-03-15T05:07:45.227Z,2.29
2024-03-15T05:10:48.284Z,2.57
2024-03-15T05:13:50.564Z,1.95
2024-03-15T05:16:56.403Z,2.26
2024-03-15T05:19:58.613Z,2.13
2024-03-15T05:23:01.374Z,2.22
2024-03-15T05:26:06.232Z,2.56
2024-03-15T05:29:08.505Z,2.35
2024-03-15T05:32:10.677Z,2.44
2024-03-15T05:35:12.847Z,2.25
2024-03-15T05:38:15.017Z,2.15
2024-03-15T05:41:17.484Z,2.15
2024-03-15T05:44:19.601Z,2.19
2024-03-15T05:47:21.660Z,2.13
2024-03-15T05:50:23.847Z,2.20
2024-03-15T05:53:25.936Z,2.61
2024-03-15T05:56:28.110Z,2.43
2024-03-15T05:59:30.247Z,2.70
2024-03-15T06:02:32.453Z,2.68
2024-03-15T06:05:34.581Z,2.46
2024-03-15T06:08:36.735Z,2.68
2024-03-15T06:11:39.139Z,2.75
2024-03-15T06:14:41.352Z,2.77
2024-03-15T06:17:43.513Z,2.83
2024-03-15T06:20:45.993Z,2.77
2024-03-15T06:23:48.215Z,3.14
2024-03-15T06:26:53.022Z,3.04
2024-03-15T06:29:56.926Z,3.04
2024-03-15T06:33:01.004Z,3.10
2024-03-15T06:36:04.642Z,3.10
2024-03-15T06:39:24.253Z,3.47
2024-03-15T06:42:36.806Z,3.44
2024-03-15T06:45:51.220Z,3.72
2024-03-15T06:48:58.270Z,3.84
2024-03-15T06:52:19.055Z,3.85
2024-03-15T06:55:21.902Z,4.19
2024-03-15T06:58:24.779Z,4.07
2024-03-15T07:01:29.456Z,4.43
2024-03-15T07:04:31.526Z,4.53
2024-03-15T07:07:34.482Z,4.42
2024-03-15T07:10:36.609Z,4.35
2024-03-15T07:13:38.847Z,4.61
2024-03-15T07:16:41.074Z,4.71
2024-03-15T07:19:43.410Z,4.90
2024-03-15T07:22:45.662Z,5.25
2024-03-15T07:25:51.126Z,5.22
2024-03-15T07:28:53.309Z,5.40
2024-03-15T07:31:55.883Z,5.64
2024-03-15T07:34:58.018Z,5.80
2024-03-15T07:38:00.260Z,5.94
2024-03-15T07:41:02.465Z,6.14
2024-03-15T07:44:05.121Z,6.38
2024-03-15T07:47:08.547Z,6.53
2024-03-15T07:50:13.521Z,6.84
2024-03-15T07:53:16.532Z,7.14
2024-03-15T07:56:20.455Z,7.47
2024-03-15T07:59:22.573Z,7.81
2024-03-15T08:02:25.860Z,8.28
2024-03-15T08:05:28.805Z,8.61
2024-03-15T08:08:32.299Z,9.12
2024-03-15T08:11:37.509Z,9.47
2024-03-15T08:14:39.700Z,9.87
2024-03-15T08:17:42.167Z,10.17
2024-03-15T08:20:48.732Z,10.47
2024-03-15T08:23:51.001Z,10.66
2024-03-15T08:26:54.048Z,10.80
2024-03-15T08:29:58.080Z,11.00
2024-03-15T08:33:00.213Z,11.18
2024-03-15T08:36:03.913Z,11.22
2024-03-15T08:39:11.722Z,11.42
2024-03-15T08:42:13.986Z,11.70
2024-03-15T08:45:16.564Z,11.80
2024-03-15T08:48:19.720Z,11.98
2024-03-15T08:51:23.654Z,12.12
2024-03-15T08:54:26.198Z,12.40
2024-03-15T08:57:28.482Z,12.38
2024-03-15T09:00:30.710Z,12.45
2024-03-15T09:03:39.672Z,12.53
2024-03-15T09:06:43.061Z,12.53
2024-03-15T09:09:45.365Z,12.65
2024-03-15T09:12:48.243Z,12.82
2024-03-15T09:15:50.703Z,12.78
2024-03-15T09:18:54.501Z,12.80
2024-03-15T09:22:01.075Z,12.97
2024-03-15T09:25:03.758Z,13.12
2024-03-15T09:28:08.627Z,13.24
2024-03-15T09:31:24.165Z,13.32
2024-03-15T09:34:34.589Z,13.29
2024-03-15T09:37:39.799Z,13.17
2024-03-15T09:40:42.461Z,13.13
2024-03-15T09:43:47.248Z,13.35
2024-03-15T09:46:49.531Z,13.53
2024-03-15T09:49:53.203Z,13.64
2024-03-15T09:52:57.045Z,13.76
2024-03-15T09:55:59.511Z,13.53
2024-03-15T09:59:02.444Z,13.63
2024-03-15T10:02:18.197Z,13.84
2024-03-15T10:05:26.364Z,14.00
2024-03-15T10:08:29.127Z,14.23
2024-03-15T10:11:31.246Z,14.28
2024-03-15T10:14:33.764Z,14.44
2024-03-15T10:17:37.613Z,14.68
2024-03-15T10:20:41.142Z,14.43
2024-03-15T10:23:43.344Z,14.56
2024-03-15T10:26:45.482Z,14.64
2024-03-15T10:29:47.999Z,14.56
2024-03-15T10:32:51.609Z,14.77
2024-03-15T10:35:53.744Z,14.93
2024-03-15T10:38:57.206Z,14.94
2024-03-15T10:41:59.787Z,15.06
2024-03-15T10:45:02.198Z,15.24
2024-03-15T10:48:11.661Z,15.43
2024-03-15T10:51:15.512Z,15.58
2024-03-15T10:54:22.200Z,15.01
2024-03-15T10:57:24.615Z,15.21
2024-03-15T11:00:30.221Z,15.27
2024-03-15T11:03:34.796Z,15.43
2024-03-15T11:06:42.101Z,15.58
2024-03-15T11:09:46.995Z,15.41
2024-03-15T11:12:52.853Z,15.48
2024-03-15T11:15:55.497Z,15.49
2024-03-15T11:19:06.885Z,15.56
2024-03-15T11:22:21.075Z,14.94
2024-03-15T11:25:29.006Z,14.88
2024-03-15T11:28:33.789Z,15.07
2024-03-15T11:31:37.614Z,15.13
2024-03-15T11:34:42.944Z,15.23
2024-03-15T11:37:46.096Z,15.28
2024-03-15T11:40:49.228Z,14.81
2024-03-15T11:43:57.300Z,14.58
2024-03-15T11:46:59.550Z,14.63
2024-03-15T11:50:04.481Z,14.73
2024-03-15T11:53:08.436Z,14.95
2024-03-15T11:56:10.952Z,15.19
2024-03-15T11:59:13.109Z,15.41
2024-03-15T12:02:16.124Z,15.41
2024-03-15T12:05:18.295Z,15.40
2024-03-15T12:08:22.576Z,15.28
2024-03-15T12:11:24.837Z,15.19
2024-03-15T12:14:26.989Z,15.26
2024-03-15T12:17:29.193Z,15.47
2024-03-15T12:20:31.728Z,15.57
2024-03-15T12:23:36.778Z,15.58
2024-03-15T12:26:39.758Z,15.63
2024-03-15T12:29:42.064Z,15.64
2024-03-15T12:32:44.427Z,15.67
2024-03-15T12:35:50.545Z,15.55
2024-03-15T12:38:53.693Z,15.58
2024-03-15T12:43:13.740Z,15.64
2024-03-15T12:46:16.175Z,15.74
2024-03-15T12:49:18.340Z,15.66
2024-03-15T12:52:20.586Z,15.70
2024-03-15T12:55:22.810Z,15.52
2024-03-15T12:58:25.848Z,15.69
2024-03-15T13:01:28.136Z,15.85
2024-03-15T13:04:30.465Z,15.63
2024-03-15T13:07:32.539Z,15.77
2024-03-15T13:10:35.016Z,15.81
2024-03-15T13:13:37.163Z,15.92
2024-03-15T13:16:40.448Z,15.89
2024-03-15T13:19:43.233Z,15.93
2024-03-15T13:22:46.699Z,15.88
2024-03-15T13:25:48.916Z,15.93
2024-03-15T13:28:52.490Z,15.96
2024-03-15T13:31:54.832Z,15.95
2024-03-15T13:34:57.403Z,15.97
2024-03-15T13:37:59.545Z,16.00
2024-03-15T13:41:01.677Z,15.99
2024-03-15T13:44:03.789Z,16.00
2024-03-15T13:47:09.367Z,16.03
2024-03-15T13:50:20.934Z,16.08
2024-03-15T13:53:23.286Z,16.06
2024-03-15T13:56:25.499Z,15.99
2024-03-15T13:59:29.628Z,15.99
2024-03-15T14:02:31.795Z,16.01
2024-03-15T14:05:40.519Z,15.97
2024-03-15T14:08:43.503Z,15.95
2024-03-15T14:11:46.423Z,16.00
2024-03-15T14:14:48.505Z,16.05
2024-03-15T14:17:53.832Z,16.14
2024-03-15T14:20:55.909Z,16.04
2024-03-15T14:23:57.986Z,15.97
2024-03-15T14:27:04.550Z,15.88
2024-03-15T14:30:07.276Z,15.84
2024-03-15T14:33:11.272Z,15.66
2024-03-15T14:36:14.716Z,15.57
2024-03-15T14:39:16.994Z,15.59
2024-03-15T14:42:19.251Z,15.61
2024-03-15T14:45:28.095Z,15.71
2024-03-15T14:48:30.480Z,15.49
2024-03-15T14:51:32.668Z,15.73
2024-03-15T14:54:35.563Z,15.60
2024-03-15T14:57:37.830Z,15.62
2024-03-15T15:00:40.240Z,15.45
2024-03-15T15:03:42.886Z,15.42
2024-03-15T15:06:45.146Z,15.26
2024-03-15T15:09:47.684Z,15.27
2024-03-15T15:12:49.984Z,15.36
2024-03-15T15:15:52.523Z,15.09
2024-03-15T15:18:54.764Z,14.93
2024-03-15T15:21:57.034Z,14.77
2024-03-15T15:24:59.262Z,14.99
2024-03-15T15:28:01.557Z,14.98
2024-03-15T15:31:03.872Z,14.94
2024-03-15T15:34:05.992Z,14.60
2024-03-15T15:37:08.298Z,14.56
2024-03-15T15:40:16.335Z,14.52
2024-03-15T15:43:19.354Z,14.43
2024-03-15T15:46:21.712Z,14.38
2024-03-15T15:49:25.392Z,14.30
2024-03-15T15:52:27.810Z,14.28
2024-03-15T15:55:32.005Z,14.31
2024-03-15T15:58:34.480Z,14.29
2024-03-15T16:01:38.428Z,14.34
2024-03-15T16:04:40.768Z,14.26
2024-03-15T16:07:42.973Z,14.22
2024-03-15T16:10:46.841Z,14.17
2024-03-15T16:13:49.087Z,14.09
2024-03-15T16:16:54.190Z,13.98
2024-03-15T16:19:56.289Z,13.92
2024-03-15T16:22:58.813Z,13.86
2024-03-15T16:26:01.399Z,13.90
2024-03-15T16:29:07.138Z,13.50
2024-03-15T16:32:09.153Z,13.49
2024-03-15T16:35:11.420Z,13.37
2024-03-15T16:38:13.526Z,13.29
2024-03-15T16:41:16.567Z,13.16
2024-03-15T16:44:18.813Z,13.06
2024-03-15T16:47:20.999Z,12.83
2024-03-15T16:50:26.436Z,12.68
2024-03-15T16:53:29.404Z,12.52
2024-03-15T16:56:32.717Z,12.19
2024-03-15T16:59:34.794Z,12.05
2024-03-15T17:02:39.564Z,12.03
2024-03-15T17:05:41.875Z,11.73
2024-03-15T17:08:44.033Z,11.41
2024-03-15T17:11:46.132Z,11.43
2024-03-15T17:14:48.267Z,10.99
2024-03-15T17:17:50.390Z,10.85
2024-03-15T17:20:52.520Z,10.86
2024-03-15T17:23:54.766Z,10.76
2024-03-15T17:26:56.947Z,10.82
2024-03-15T17:30:01.314Z,10.66
2024-03-15T17:33:06.204Z,10.38
2024-03-15T17:36:08.575Z,10.67
2024-03-15T17:39:12.888Z,10.61
2024-03-15T17:42:15.159Z,10.32
2024-03-15T17:45:17.352Z,9.98
2024-03-15T17:48:19.678Z,10.01
2024-03-15T17:51:24.156Z,10.01
2024-03-15T17:54:27.760Z,10.12
2024-03-15T17:57:31.268Z,9.87
2024-03-15T18:00:33.479Z,9.74
2024-03-15T18:03:35.684Z,9.65
2024-03-15T18:06:37.848Z,9.77
2024-03-15T18:09:41.116Z,9.70
2024-03-15T18:12:43.391Z,9.68
2024-03-15T18:15:49.520Z,9.62
2024-03-15T18:18:52.123Z,9.41
2024-03-15T18:21:54.492Z,9.87
2024-03-15T18:24:56.775Z,9.54
2024-03-15T18:28:01.018Z,9.52
2024-03-15T18:31:06.984Z,9.27
2024-03-15T18:34:09.742Z,9.42
2024-03-15T18:37:12.313Z,9.26
2024-03-15T18:40:14.841Z,9.14
2024-03-15T18:43:17.281Z,9.29
2024-03-15T18:46:19.801Z,9.38
2024-03-15T18:49:22.231Z,9.28
2024-03-15T18:52:25.235Z,9.07
2024-03-15T18:55:27.409Z,9.08
2024-03-15T18:58:30.193Z,9.15
2024-03-15T19:01:36.007Z,9.13
2024-03-15T19:04:41.339Z,8.84
2024-03-15T19:07:44.402Z,8.71
2024-03-15T19:10:47.724Z,8.56
2024-03-15T19:13:50.244Z,8.84
2024-03-15T19:16:54.490Z,8.68
2024-03-15T19:20:16.677Z,8.52
2024-03-15T19:23:19.135Z,8.38
2024-03-15T19:26:22.081Z,8.42
2024-03-15T19:29:25.037Z,8.43
2024-03-15T19:32:32.558Z,8.38
2024-03-15T19:35:35.486Z,8.35
2024-03-15T19:38:37.903Z,8.52
2024-03-15T19:41:40.246Z,8.39
2024-03-15T19:44:43.244Z,8.21
2024-03-15T19:47:46.629Z,8.24
2024-03-15T19:50:49.625Z,8.39
2024-03-15T19:53:52.934Z,8.51
2024-03-15T19:56:55.757Z,8.30
2024-03-15T19:59:58.623Z,8.24
2024-03-15T20:03:01.573Z,8.24
2024-03-15T20:06:05.502Z,8.20
2024-03-15T20:09:07.785Z,8.50
2024-03-15T20:12:10.314Z,8.79
2024-03-15T20:15:13.417Z,8.47
2024-03-15T20:18:15.871Z,8.42
2024-03-15T20:21:18.966Z,8.27
2024-03-15T20:24:22.334Z,8.31
2024-03-15T20:27:25.272Z,8.26
2024-03-15T20:30:27.730Z,8.22
2024-03-15T20:33:30.023Z,8.24
2024-03-15T20:36:32.658Z,8.23
2024-03-15T20:39:37.253Z,8.20
2024-03-15T20:42:41.697Z,8.37
2024-03-15T20:45:49.833Z,8.41
2024-03-15T20:48:53.733Z,8.63
2024-03-15T20:51:57.192Z,8.49
2024-03-15T20:55:00.032Z,8.35
2024-03-15T20:58:02.647Z,8.41
2024-03-15T21:01:08.191Z,8.71
2024-03-15T21:04:13.710Z,8.42
2024-03-15T21:07:16.874Z,8.33
2024-03-15T21:10:19.913Z,8.33
2024-03-15T21:13:22.238Z,8.27
2024-03-15T21:16:24.478Z,8.31
2024-03-15T21:19:26.965Z,8.29
2024-03-15T21:22:29.206Z,8.61
2024-03-15T21:25:32.922Z,8.47
2024-03-15T21:28:35.336Z,8.64
2024-03-15T21:31:40.570Z,8.41
2024-03-15T21:34:42.934Z,8.39
2024-03-15T21:37:45.177Z,8.49
2024-03-15T21:40:53.804Z,8.47
2024-03-15T21:43:56.251Z,8.28
2024-03-15T21:46:58.459Z,8.31
2024-03-15T21:50:01.466Z,8.43
2024-03-15T21:53:04.448Z,8.53
2024-03-15T21:56:08.538Z,8.49
2024-03-15T21:59:10.701Z,8.59
2024-03-15T22:02:14.709Z,8.37
2024-03-15T22:05:17.065Z,8.41
2024-03-15T22:08:21.363Z,8.47
2024-03-15T22:11:24.465Z,8.44
2024-03-15T22:14:26.792Z,8.57
2024-03-15T22:17:29.091Z,8.40
2024-03-15T22:20:31.294Z,8.55
2024-03-15T22:23:33.952Z,8.46
2024-03-15T22:26:36.108Z,8.36
2024-03-15T22:29:38.366Z,8.19
2024-03-15T22:32:42.089Z,8.25
2024-03-15T22:35:44.804Z,8.23
2024-03-15T22:38:52.852Z,8.47
2024-03-15T22:41:55.138Z,8.31
2024-03-15T22:44:58.278Z,8.12
2024-03-15T22:48:01.944Z,8.08
2024-03-15T22:51:05.803Z,8.18
2024-03-15T22:54:08.777Z,8.33
2024-03-15T22:57:12.678Z,8.27
2024-03-15T23:00:18.155Z,8.63
2024-03-15T23:03:20.745Z,8.46
2024-03-15T23:06:42.854Z,8.46
2024-03-15T23:09:45.156Z,8.68
2024-03-15T23:12:48.782Z,8.96
2024-03-15T23:15:52.760Z,9.09
2024-03-15T23:18:55.123Z,9.18
2024-03-15T23:21:57.459Z,9.80
2024-03-15T23:24:59.838Z,10.59
2024-03-15T23:28:02.162Z,11.25
2024-03-15T23:31:05.154Z,11.43
2024-03-15T23:34:08.179Z,11.42
2024-03-15T23:37:11.039Z,11.77
2024-03-15T23:40:14.124Z,11.14
2024-03-15T23:43:22.637Z,10.75
2024-03-15T23:46:25.087Z,10.68
2024-03-15T23:49:27.428Z,10.72
2024-03-15T23:52:30.223Z,11.23
2024-03-15T23:55:32.464Z,11.20
2024-03-15T23:58:34.788Z,10.40
